createdAt,value
2018-09-28T00:02:02.395Z,3.77
2018-09-28T00:04:31.698Z,3.87
2018-09-28T00:07:00.899Z,3.50
2018-09-28T00:09:30.208Z,3.67
2018-09-28T00:11:59.570Z,3.90
2018-09-28T00:14:28.898Z,3.67
2018-09-28T00:16:58.068Z,3.98
2018-09-28T00:19:27.296Z,3.87
2018-09-28T00:21:56.492Z,3.60
2018-09-28T00:24:25.660Z,3.75
2018-09-28T00:26:54.887Z,3.60
2018-09-28T00:29:24.262Z,3.90
2018-09-28T00:31:53.590Z,3.70
2018-09-28T00:34:22.891Z,3.90
2018-09-28T00:36:52.056Z,3.75
2018-09-28T00:39:21.187Z,3.83
2018-09-28T00:41:50.348Z,3.80
2018-09-28T00:44:19.487Z,3.40
2018-09-28T00:46:48.739Z,3.40
2018-09-28T00:49:17.970Z,3.30
2018-09-28T00:51:47.338Z,3.47
2018-09-28T00:54:16.676Z,3.30
2018-09-28T00:56:45.975Z,3.50
2018-09-28T00:59:15.280Z,3.60
2018-09-28T01:01:44.463Z,3.85
2018-09-28T01:04:13.739Z,3.33
2018-09-28T01:06:43.063Z,3.30
2018-09-28T01:09:14.360Z,3.00
2018-09-28T01:11:43.508Z,3.23
2018-09-28T01:14:12.683Z,3.62
2018-09-28T01:16:41.799Z,3.30
2018-09-28T01:19:11.001Z,3.15
2018-09-28T01:21:40.423Z,3.45
2018-09-28T01:24:09.716Z,3.25
2018-09-28T01:26:39.088Z,3.42
2018-09-28T01:29:08.424Z,3.12
2018-09-28T01:31:37.783Z,3.00
2018-09-28T01:34:06.910Z,3.20
2018-09-28T01:36:36.067Z,3.33
2018-09-28T01:39:06.441Z,3.45
2018-09-28T01:41:35.680Z,3.20
2018-09-28T01:44:05.028Z,3.17
2018-09-28T01:46:34.332Z,3.20
2018-09-28T01:49:03.593Z,3.30
2018-09-28T01:51:32.819Z,3.00
2018-09-28T01:54:02.083Z,3.20
2018-09-28T01:56:31.216Z,3.35
2018-09-28T01:59:00.579Z,3.12
2018-09-28T02:01:29.818Z,3.20
2018-09-28T02:03:59.211Z,3.40
2018-09-28T02:06:28.339Z,3.22
2018-09-28T02:08:57.618Z,3.30
2018-09-28T02:11:26.874Z,3.20
2018-09-28T02:13:56.011Z,3.00
2018-09-28T02:16:25.272Z,3.10
2018-09-28T02:18:54.617Z,2.85
2018-09-28T02:21:23.983Z,3.08
2018-09-28T02:23:53.103Z,3.12
2018-09-28T02:26:22.399Z,3.08
2018-09-28T02:28:51.571Z,3.20
2018-09-28T02:31:20.690Z,3.20
2018-09-28T02:33:49.975Z,3.00
2018-09-28T02:36:19.187Z,3.08
2018-09-28T02:38:48.567Z,2.95
2018-09-28T02:41:17.696Z,3.60
2018-09-28T02:43:46.956Z,3.00
2018-09-28T02:46:16.199Z,3.17
2018-09-28T02:48:45.385Z,3.20
2018-09-28T02:51:14.590Z,3.20
2018-09-28T02:53:43.784Z,3.30
2018-09-28T02:56:13.151Z,3.10
2018-09-28T02:58:42.387Z,3.30
2018-09-28T03:01:11.644Z,3.22
2018-09-28T03:03:40.774Z,3.03
2018-09-28T03:06:10.008Z,3.12
2018-09-28T03:08:39.170Z,3.30
2018-09-28T03:11:08.479Z,3.12
2018-09-28T03:13:37.644Z,2.90
2018-09-28T03:16:06.880Z,3.17
2018-09-28T03:18:36.344Z,2.95
2018-09-28T03:21:05.462Z,3.17
2018-09-28T03:23:34.633Z,3.27
2018-09-28T03:26:03.935Z,3.08
2018-09-28T03:28:33.126Z,2.95
2018-09-28T03:31:02.362Z,3.00
2018-09-28T03:33:31.528Z,2.98
2018-09-28T03:36:01.518Z,2.87
2018-09-28T03:38:30.838Z,2.90
2018-09-28T03:41:00.062Z,3.10
2018-09-28T03:43:29.258Z,3.10
2018-09-28T03:45:58.390Z,3.20
2018-09-28T03:48:27.575Z,3.12
2018-09-28T03:50:56.714Z,3.00
2018-09-28T03:53:26.027Z,3.05
2018-09-28T03:55:55.355Z,2.83
2018-09-28T03:58:24.652Z,3.00
2018-09-28T04:00:53.927Z,3.10
2018-09-28T04:03:23.143Z,3.00
2018-09-28T04:05:52.451Z,3.00
2018-09-28T04:08:21.727Z,3.05
2018-09-28T04:10:51.042Z,3.02
2018-09-28T04:13:20.311Z,2.77
2018-09-28T04:15:49.667Z,3.08
2018-09-28T04:18:19.028Z,2.85
2018-09-28T04:20:48.248Z,3.00
2018-09-28T04:23:17.543Z,2.90
2018-09-28T04:25:46.710Z,2.85
2018-09-28T04:28:16.039Z,2.65
2018-09-28T04:30:45.417Z,2.77
2018-09-28T04:33:14.640Z,2.70
2018-09-28T04:35:43.932Z,2.87
2018-09-28T04:38:13.148Z,3.20
2018-09-28T04:40:42.339Z,3.15
2018-09-28T04:43:11.608Z,3.10
2018-09-28T04:45:40.913Z,2.83
2018-09-28T04:48:10.105Z,3.10
2018-09-28T04:50:39.331Z,3.12
2018-09-28T04:53:08.599Z,3.33
2018-09-28T04:55:37.823Z,3.30
2018-09-28T04:58:07.091Z,3.00
2018-09-28T05:00:36.336Z,3.30
2018-09-28T05:03:05.599Z,3.27
2018-09-28T05:05:34.744Z,3.37
2018-09-28T05:08:04.079Z,3.10
2018-09-28T05:10:33.337Z,3.62
2018-09-28T05:13:02.652Z,3.15
2018-09-28T05:15:31.892Z,3.17
2018-09-28T05:18:01.120Z,3.30
2018-09-28T05:20:30.496Z,3.37
2018-09-28T05:22:59.803Z,3.87
2018-09-28T05:25:28.972Z,3.50
2018-09-28T05:27:58.119Z,3.50
2018-09-28T05:30:27.387Z,3.33
2018-09-28T05:32:56.651Z,3.70
2018-09-28T05:35:25.676Z,3.87
2018-09-28T05:37:54.954Z,3.83
2018-09-28T05:40:24.275Z,3.72
2018-09-28T05:42:53.601Z,4.12
2018-09-28T05:45:23.002Z,3.90
2018-09-28T05:47:52.314Z,3.70
2018-09-28T05:50:21.498Z,4.53
2018-09-28T05:52:50.671Z,4.30
2018-09-28T05:55:19.875Z,4.12
2018-09-28T05:57:51.740Z,3.90
2018-09-28T06:00:25.866Z,4.22
2018-09-28T06:03:00.262Z,4.40
2018-09-28T06:05:33.705Z,4.65
2018-09-28T06:08:03.123Z,5.10
2018-09-28T06:10:32.350Z,5.17
2018-09-28T06:13:01.431Z,4.70
2018-09-28T06:15:30.565Z,5.53
2018-09-28T06:18:00.066Z,5.33
2018-09-28T06:20:29.299Z,5.60
2018-09-28T06:23:04.332Z,5.40
2018-09-28T06:25:33.626Z,5.50
2018-09-28T06:28:03.042Z,5.03
2018-09-28T06:30:32.535Z,5.37
2018-09-28T06:33:01.828Z,5.03
2018-09-28T06:35:31.104Z,5.45
2018-09-28T06:38:00.403Z,5.42
2018-09-28T06:40:29.998Z,5.12
2018-09-28T06:42:59.457Z,5.53
2018-09-28T06:45:28.599Z,5.20
2018-09-28T06:47:57.904Z,6.08
2018-09-28T06:50:27.122Z,5.42
2018-09-28T06:52:56.320Z,5.33
2018-09-28T06:55:25.724Z,4.95
2018-09-28T06:57:55.113Z,5.70
2018-09-28T07:00:24.485Z,5.50
2018-09-28T07:02:53.715Z,5.12
2018-09-28T07:05:23.232Z,5.27
2018-09-28T07:07:52.383Z,5.40
2018-09-28T07:10:21.751Z,5.50
2018-09-28T07:12:51.748Z,5.17
2018-09-28T07:15:21.007Z,5.45
2018-09-28T07:17:50.440Z,5.40
2018-09-28T07:20:19.511Z,5.58
2018-09-28T07:22:48.653Z,5.67
2018-09-28T07:25:18.640Z,5.70
2018-09-28T07:27:49.019Z,5.70
2018-09-28T07:30:18.343Z,6.15
2018-09-28T07:32:47.580Z,5.30
2018-09-28T07:35:16.983Z,5.45
2018-09-28T07:37:46.377Z,5.67
2018-09-28T07:40:15.687Z,6.10
2018-09-28T07:42:44.851Z,6.17
2018-09-28T07:45:14.073Z,5.60
2018-09-28T07:47:43.323Z,5.53
2018-09-28T07:50:12.475Z,4.90
2018-09-28T07:52:42.083Z,5.80
2018-09-28T07:55:11.680Z,5.22
2018-09-28T07:57:44.790Z,6.03
2018-09-28T08:00:14.184Z,6.10
2018-09-28T08:02:43.477Z,5.70
2018-09-28T08:05:12.807Z,5.70
2018-09-28T08:07:42.671Z,5.90
2018-09-28T08:10:11.887Z,6.00
2018-09-28T08:12:41.190Z,5.67
2018-09-28T08:15:10.567Z,5.50
2018-09-28T08:17:39.859Z,5.25
2018-09-28T08:20:09.052Z,5.55
2018-09-28T08:22:38.166Z,5.62
2018-09-28T08:25:07.249Z,4.97
2018-09-28T08:27:36.618Z,5.20
2018-09-28T08:30:10.047Z,4.83
2018-09-28T08:32:39.272Z,4.67
2018-09-28T08:35:08.668Z,5.20
2018-09-28T08:37:37.831Z,5.70
2018-09-28T08:40:07.088Z,4.20
2018-09-28T08:42:36.245Z,4.47
2018-09-28T08:45:05.482Z,4.58
2018-09-28T08:47:34.632Z,4.35
2018-09-28T08:50:03.755Z,4.55
2018-09-28T08:52:32.959Z,4.30
2018-09-28T08:55:02.351Z,4.28
2018-09-28T08:57:31.654Z,4.62
2018-09-28T09:00:00.823Z,4.40
2018-09-28T09:02:30.046Z,5.17
2018-09-28T09:04:59.336Z,4.85
2018-09-28T09:07:28.648Z,5.10
2018-09-28T09:09:57.916Z,4.60
2018-09-28T09:12:27.181Z,4.83
2018-09-28T09:14:56.415Z,4.58
2018-09-28T09:17:25.663Z,4.37
2018-09-28T09:19:54.807Z,4.90
2018-09-28T09:22:24.084Z,5.12
2018-09-28T09:24:53.198Z,4.47
2018-09-28T09:27:22.336Z,4.53
2018-09-28T09:29:51.500Z,5.40
2018-09-28T09:32:20.707Z,4.20
2018-09-28T09:34:50.231Z,4.40
2018-09-28T09:37:19.520Z,4.60
2018-09-28T09:39:48.723Z,4.00
2018-09-28T09:42:18.097Z,3.67
2018-09-28T09:44:47.331Z,3.90
2018-09-28T09:47:16.504Z,3.73
2018-09-28T09:49:45.570Z,4.45
2018-09-28T09:52:14.684Z,3.72
2018-09-28T09:54:43.970Z,3.80
2018-09-28T09:57:13.088Z,3.10
2018-09-28T09:59:42.384Z,3.30
2018-09-28T10:02:16.689Z,3.70
2018-09-28T10:04:45.996Z,3.60
2018-09-28T10:07:15.231Z,3.60
2018-09-28T10:09:44.427Z,3.40
2018-09-28T10:12:13.598Z,3.60
2018-09-28T10:14:42.983Z,3.40
2018-09-28T10:17:12.225Z,3.83
2018-09-28T10:20:21.451Z,3.10
2018-09-28T10:22:50.647Z,2.90
2018-09-28T10:25:19.946Z,3.40
2018-09-28T10:27:49.415Z,3.33
2018-09-28T10:30:18.759Z,2.72
2018-09-28T10:32:48.252Z,3.53
2018-09-28T10:35:17.563Z,2.62
2018-09-28T10:37:46.826Z,3.00
2018-09-28T10:40:16.105Z,3.22
2018-09-28T10:42:45.443Z,3.47
2018-09-28T10:45:14.949Z,3.30
2018-09-28T10:47:44.330Z,3.10
2018-09-28T10:50:13.463Z,3.50
2018-09-28T10:52:42.709Z,3.05
2018-09-28T10:55:11.756Z,3.30
2018-09-28T10:57:40.851Z,3.45
2018-09-28T11:00:10.644Z,3.60
2018-09-28T11:02:40.058Z,3.20
2018-09-28T11:05:09.455Z,3.10
2018-09-28T11:07:38.827Z,3.27
2018-09-28T11:10:08.071Z,3.40
2018-09-28T11:12:37.283Z,3.70
2018-09-28T11:15:06.576Z,3.40
2018-09-28T11:17:35.873Z,3.75
2018-09-28T11:20:05.139Z,2.85
2018-09-28T11:22:34.247Z,3.08
2018-09-28T11:25:03.619Z,3.30
2018-09-28T11:27:33.355Z,3.12
2018-09-28T11:30:03.504Z,2.80
2018-09-28T11:32:32.726Z,3.20
2018-09-28T11:35:05.952Z,2.87
2018-09-28T11:37:38.404Z,3.00
2018-09-28T11:40:07.679Z,2.70
2018-09-28T11:42:37.440Z,3.50
2018-09-28T11:45:07.642Z,3.47
2018-09-28T11:47:38.131Z,3.12
2018-09-28T11:50:07.420Z,3.45
2018-09-28T11:52:36.668Z,3.30
2018-09-28T11:55:05.802Z,3.60
2018-09-28T11:57:34.996Z,3.50
2018-09-28T12:00:04.431Z,3.20
2018-09-28T12:02:33.662Z,3.47
2018-09-28T12:05:02.914Z,3.40
2018-09-28T12:07:32.111Z,3.50
2018-09-28T12:10:01.271Z,3.35
2018-09-28T12:12:30.592Z,3.37
2018-09-28T12:14:59.858Z,3.75
2018-09-28T12:17:29.186Z,3.47
2018-09-28T12:19:58.519Z,3.75
2018-09-28T12:22:27.789Z,3.37
2018-09-28T12:24:56.960Z,4.22
2018-09-28T12:27:26.279Z,4.62
2018-09-28T12:29:55.388Z,4.05
2018-09-28T12:32:24.655Z,4.53
2018-09-28T12:34:53.761Z,4.10
2018-09-28T12:37:23.047Z,4.10
2018-09-28T12:39:52.329Z,4.50
2018-09-28T12:42:21.652Z,3.95
2018-09-28T12:44:50.944Z,3.25
2018-09-28T12:47:20.068Z,3.40
2018-09-28T12:49:49.280Z,3.40
2018-09-28T12:52:18.470Z,4.00
2018-09-28T12:54:47.961Z,3.80
2018-09-28T12:57:17.171Z,3.30
2018-09-28T12:59:46.427Z,3.53
2018-09-28T13:02:15.809Z,3.08
2018-09-28T13:04:45.140Z,3.67
2018-09-28T13:07:14.271Z,3.70
2018-09-28T13:09:43.430Z,3.90
2018-09-28T13:12:12.662Z,4.35
2018-09-28T13:14:41.931Z,4.58
2018-09-28T13:17:11.260Z,3.50
2018-09-28T13:19:40.432Z,4.00
2018-09-28T13:22:09.760Z,3.52
2018-09-28T13:24:39.083Z,4.10
2018-09-28T13:27:08.347Z,4.00
2018-09-28T13:29:37.660Z,3.83
2018-09-28T13:32:06.843Z,4.03
2018-09-28T13:34:36.150Z,3.92
2018-09-28T13:37:05.332Z,3.87
2018-09-28T13:39:34.544Z,3.90
2018-09-28T13:42:03.615Z,3.67
2018-09-28T13:44:33.936Z,4.00
2018-09-28T13:47:03.514Z,4.40
2018-09-28T13:49:32.435Z,4.30
2018-09-28T13:52:01.366Z,3.87
2018-09-28T13:54:30.296Z,4.00
2018-09-28T13:56:59.535Z,5.22
2018-09-28T13:59:28.748Z,3.45
2018-09-28T14:01:58.048Z,3.35
2018-09-28T14:04:26.997Z,4.00
2018-09-28T14:06:55.832Z,4.15
2018-09-28T14:09:24.725Z,3.67
2018-09-28T14:11:54.139Z,3.80
2018-09-28T14:14:23.266Z,3.77
2018-09-28T14:16:52.618Z,3.55
2018-09-28T14:19:22.175Z,3.07
2018-09-28T14:21:51.084Z,3.10
2018-09-28T14:24:20.105Z,3.33
2018-09-28T14:26:49.119Z,3.10
2018-09-28T14:29:18.035Z,2.80
2018-09-28T14:31:46.907Z,3.30
2018-09-28T14:34:15.853Z,3.15
2018-09-28T14:36:44.764Z,3.27
2018-09-28T14:39:13.603Z,2.70
2018-09-28T14:41:42.549Z,3.00
2018-09-28T14:44:11.412Z,2.67
2018-09-28T14:46:40.375Z,3.33
2018-09-28T14:49:10.495Z,3.33
2018-09-28T14:51:39.677Z,3.50
2018-09-28T14:54:08.600Z,3.00
2018-09-28T14:56:38.509Z,2.75
2018-09-28T14:59:07.475Z,3.55
2018-09-28T15:01:36.387Z,3.22
2018-09-28T15:04:06.327Z,3.12
2018-09-28T15:06:35.344Z,3.33
2018-09-28T15:09:04.919Z,3.10
2018-09-28T15:11:33.964Z,3.50
2018-09-28T15:14:02.914Z,3.50
2018-09-28T15:16:31.863Z,3.37
2018-09-28T15:19:00.747Z,3.20
2018-09-28T15:21:29.775Z,3.22
2018-09-28T15:23:58.895Z,3.15
2018-09-28T15:26:27.814Z,3.60
2018-09-28T15:28:56.680Z,3.40
2018-09-28T15:31:25.660Z,3.83
2018-09-28T15:33:55.119Z,3.77
2018-09-28T15:36:24.007Z,3.60
2018-09-28T15:38:52.872Z,3.42
2018-09-28T15:41:21.757Z,3.12
2018-09-28T15:43:50.642Z,3.50
2018-09-28T15:46:19.646Z,3.35
2018-09-28T15:48:48.577Z,3.40
2018-09-28T15:51:17.499Z,3.25
2018-09-28T15:53:46.412Z,3.65
2018-09-28T15:56:15.275Z,4.22
2018-09-28T15:58:44.173Z,4.45
2018-09-28T16:01:13.064Z,4.20
2018-09-28T16:03:42.222Z,4.27
2018-09-28T16:06:11.080Z,4.20
2018-09-28T16:08:40.195Z,4.67
2018-09-28T16:11:13.557Z,4.00
2018-09-28T16:13:44.343Z,4.12
2018-09-28T16:16:13.202Z,3.52
2018-09-28T16:18:42.720Z,3.55
2018-09-28T16:21:17.019Z,3.77
2018-09-28T16:23:47.466Z,3.90
2018-09-28T16:26:16.399Z,4.00
2018-09-28T16:28:45.291Z,3.72
2018-09-28T16:31:14.155Z,3.52
2018-09-28T16:33:43.098Z,3.33
2018-09-28T16:36:12.109Z,4.00
2018-09-28T16:38:40.966Z,3.40
2018-09-28T16:41:09.823Z,3.35
2018-09-28T16:43:38.734Z,3.62
2018-09-28T16:46:07.707Z,3.80
2018-09-28T16:48:36.583Z,3.80
2018-09-28T16:51:05.487Z,3.70
2018-09-28T16:53:34.451Z,3.90
2018-09-28T16:56:03.409Z,3.90
2018-09-28T16:58:32.307Z,4.20
2018-09-28T17:01:01.195Z,3.67
2018-09-28T17:03:30.494Z,3.52
2018-09-28T17:05:59.771Z,3.50
2018-09-28T17:08:29.201Z,3.47
2018-09-28T17:10:58.494Z,3.60
2018-09-28T17:13:27.739Z,3.47
2018-09-28T17:15:56.754Z,3.40
2018-09-28T17:18:25.943Z,3.45
2018-09-28T17:20:55.049Z,3.57
2018-09-28T17:23:24.426Z,3.15
2018-09-28T17:25:53.681Z,3.42
2018-09-28T17:28:22.612Z,3.60
2018-09-28T17:30:51.615Z,3.40
2018-09-28T17:33:20.588Z,3.50
2018-09-28T17:35:49.487Z,3.58
2018-09-28T17:38:18.471Z,3.72
2018-09-28T17:40:47.339Z,4.00
2018-09-28T17:43:16.230Z,4.95
2018-09-28T17:45:45.096Z,5.67
2018-09-28T17:48:14.040Z,5.78
2018-09-28T17:50:43.059Z,6.77
2018-09-28T17:53:12.084Z,6.70
2018-09-28T17:55:41.767Z,6.10
2018-09-28T17:58:11.648Z,6.45
2018-09-28T18:00:40.701Z,5.87
2018-09-28T18:03:09.870Z,6.75
2018-09-28T18:05:39.245Z,6.75
2018-09-28T18:08:08.340Z,6.87
2018-09-28T18:10:37.575Z,7.28
2018-09-28T18:13:06.747Z,7.80
2018-09-28T18:15:35.931Z,7.05
2018-09-28T18:18:06.094Z,6.60
2018-09-28T18:20:36.017Z,7.20
2018-09-28T18:23:05.172Z,6.60
2018-09-28T18:25:35.533Z,6.87
2018-09-28T18:28:10.691Z,7.33
2018-09-28T18:30:40.151Z,6.12
2018-09-28T18:33:09.426Z,5.55
2018-09-28T18:35:39.452Z,5.70
2018-09-28T18:38:09.695Z,5.30
2018-09-28T18:40:40.218Z,6.03
2018-09-28T18:43:09.535Z,5.80
2018-09-28T18:45:38.708Z,5.78
2018-09-28T18:48:09.121Z,6.10
2018-09-28T18:50:39.165Z,5.72
2018-09-28T18:53:09.743Z,5.75
2018-09-28T18:55:38.888Z,5.83
2018-09-28T18:58:08.705Z,5.67
2018-09-28T19:00:37.996Z,5.30
2018-09-28T19:03:07.588Z,5.47
2018-09-28T19:05:37.175Z,5.28
2018-09-28T19:08:06.407Z,5.97
2018-09-28T19:10:35.841Z,5.60
2018-09-28T19:13:05.213Z,5.62
2018-09-28T19:15:35.516Z,6.10
2018-09-28T19:18:04.741Z,5.12
2018-09-28T19:20:33.858Z,5.10
2018-09-28T19:23:03.259Z,5.95
2018-09-28T19:25:32.707Z,6.20
2018-09-28T19:28:02.596Z,5.83
2018-09-28T19:30:32.077Z,6.78
2018-09-28T19:33:02.739Z,7.35
2018-09-28T19:35:32.793Z,7.70
2018-09-28T19:38:02.087Z,7.22
2018-09-28T19:40:31.558Z,6.95
2018-09-28T19:43:00.676Z,8.00
2018-09-28T19:45:30.284Z,7.50
2018-09-28T19:47:59.607Z,6.90
2018-09-28T19:50:28.855Z,7.17
2018-09-28T19:52:58.216Z,6.53
2018-09-28T19:55:28.004Z,6.58
2018-09-28T19:57:57.409Z,7.25
2018-09-28T20:00:26.598Z,7.17
2018-09-28T20:02:55.819Z,6.95
2018-09-28T20:05:25.803Z,7.25
2018-09-28T20:07:55.042Z,7.62
2018-09-28T20:10:24.199Z,7.70
2018-09-28T20:12:53.343Z,7.75
2018-09-28T20:15:22.992Z,8.53
2018-09-28T20:17:52.231Z,8.53
2018-09-28T20:20:21.501Z,8.60
2018-09-28T20:22:50.843Z,7.87
2018-09-28T20:25:20.194Z,8.03
2018-09-28T20:27:49.543Z,7.75
2018-09-28T20:30:18.808Z,7.90
2018-09-28T20:32:47.985Z,7.53
2018-09-28T20:35:17.200Z,7.87
2018-09-28T20:37:46.442Z,8.10
2018-09-28T20:40:15.618Z,6.78
2018-09-28T20:42:44.795Z,7.50
2018-09-28T20:45:13.914Z,7.40
2018-09-28T20:47:43.083Z,7.45
2018-09-28T20:50:12.413Z,7.33
2018-09-28T20:52:41.787Z,6.67
2018-09-28T20:55:11.111Z,7.25
2018-09-28T20:57:40.436Z,7.25
2018-09-28T21:00:09.688Z,7.30
2018-09-28T21:02:38.810Z,7.37
2018-09-28T21:05:07.672Z,6.62
2018-09-28T21:07:36.816Z,7.23
2018-09-28T21:10:06.080Z,6.60
2018-09-28T21:12:35.296Z,6.92
2018-09-28T21:15:04.443Z,6.50
2018-09-28T21:17:33.587Z,6.37
2018-09-28T21:20:03.540Z,5.67
2018-09-28T21:22:32.698Z,6.12
2018-09-28T21:25:01.874Z,5.30
2018-09-28T21:27:30.987Z,5.53
2018-09-28T21:30:00.163Z,5.20
2018-09-28T21:32:29.387Z,4.70
2018-09-28T21:34:58.649Z,5.17
2018-09-28T21:37:27.883Z,4.90
2018-09-28T21:39:57.060Z,4.75
2018-09-28T21:42:26.175Z,4.20
2018-09-28T21:44:55.327Z,4.50
2018-09-28T21:47:24.947Z,4.22
2018-09-28T21:49:54.141Z,4.70
2018-09-28T21:52:23.474Z,4.60
2018-09-28T21:54:52.640Z,4.30
2018-09-28T21:57:21.875Z,4.20
2018-09-28T21:59:51.026Z,4.50
2018-09-28T22:02:20.167Z,4.00
2018-09-28T22:04:49.464Z,3.98
2018-09-28T22:07:18.863Z,4.22
2018-09-28T22:09:48.242Z,4.20
2018-09-28T22:12:17.459Z,3.92
2018-09-28T22:14:46.630Z,3.90
2018-09-28T22:17:15.851Z,3.90
2018-09-28T22:19:45.028Z,3.77
2018-09-28T22:22:14.261Z,3.80
2018-09-28T22:24:43.417Z,3.95
2018-09-28T22:27:12.652Z,4.17
2018-09-28T22:29:41.812Z,3.90
2018-09-28T22:32:10.938Z,3.70
2018-09-28T22:34:40.019Z,4.67
2018-09-28T22:37:09.123Z,4.50
2018-09-28T22:39:38.394Z,4.65
2018-09-28T22:42:07.845Z,4.70
2018-09-28T22:44:37.332Z,4.90
2018-09-28T22:47:06.740Z,4.80
2018-09-28T22:49:36.040Z,5.00
2018-09-28T22:52:05.359Z,5.37
2018-09-28T22:54:34.604Z,5.58
2018-09-28T22:57:03.805Z,5.20
2018-09-28T22:59:33.127Z,5.50
2018-09-28T23:02:02.508Z,5.30
2018-09-28T23:04:31.737Z,5.90
2018-09-28T23:07:00.903Z,6.00
2018-09-28T23:09:30.119Z,6.37
2018-09-28T23:11:59.293Z,6.12
2018-09-28T23:14:28.413Z,6.10
2018-09-28T23:16:57.688Z,6.75
2018-09-28T23:19:26.808Z,6.20
2018-09-28T23:21:55.991Z,6.62
2018-09-28T23:24:25.220Z,6.90
2018-09-28T23:26:54.585Z,7.17
2018-09-28T23:29:23.703Z,7.12
2018-09-28T23:31:53.077Z,6.90
2018-09-28T23:34:22.204Z,7.10
2018-09-28T23:36:51.383Z,8.03
2018-09-28T23:39:20.490Z,7.75
2018-09-28T23:41:50.356Z,8.03
2018-09-28T23:44:19.604Z,8.20
2018-09-28T23:46:48.992Z,8.10
2018-09-28T23:49:18.104Z,9.45
2018-09-28T23:51:50.242Z,9.05
2018-09-28T23:54:19.464Z,9.30
2018-09-28T23:56:48.852Z,10.10
2018-09-28T23:59:17.974Z,10.58
